Details for Jet2 at EGCC




Go Back


Latest METAR
Local Time

EGCC 150450Z AUTO 19004KT 150V230 9999 BKN020 OVC027 16/14 Q1015 NOSIG
15/08/2018, 06:19:39

Description
Results
Jet2 Logo
Number of Pilots based at EGCC
2 Pilots Based here
Number of Jet2 Flights Departed from EGCC
16 Flights Departed
Number of Jet2 Flights Arrived at EGCC
10 Flights Arrived
Number of Jet2 Schedules Departing from EGCC
104 Schedules
Number of Jet2 Schedules Arriving at EGCC
103 Schedules
Number of Jet2 Schedules Departing from EGCC availible today
10 Schedules Today
Number of Jet2 Schedules Arriving at EGCC availible today
10 Schedules Today
Average Landing Rate at EGCC
-205 fpm
Jet2 Average Landing Rate at EGCC
-199 fpm
Total Fuel Purchased at EGCC by Jet2
90,835.43 kgs / 200,255.79 lbs

Pilots Based at EGCC


Pilot ID
Pilot Name
Pilot Rank
No. of Flights
No. of Flying Hours
Andy Brookes
9
9.47
Andrew Sutcliffe
417
1580.47
Content